createdAt,value
2017-07-22T00:00:42.315Z,4.40
2017-07-22T00:03:09.759Z,5.70
2017-07-22T00:05:37.203Z,4.28
2017-07-22T00:08:04.663Z,7.00
2017-07-22T00:10:32.100Z,6.68
2017-07-22T00:12:59.539Z,4.22
2017-07-22T00:15:26.989Z,4.23
2017-07-22T00:17:54.486Z,4.45
2017-07-22T00:20:21.941Z,3.20
2017-07-22T00:22:49.379Z,4.57
2017-07-22T00:25:16.835Z,3.70
2017-07-22T00:27:44.319Z,4.97
2017-07-22T00:30:11.757Z,4.32
2017-07-22T00:32:39.188Z,5.53
2017-07-22T00:35:06.630Z,4.90
2017-07-22T00:37:34.074Z,4.45
2017-07-22T00:40:01.521Z,4.80
2017-07-22T00:42:29.763Z,4.75
2017-07-22T00:44:57.224Z,4.57
2017-07-22T00:47:24.681Z,5.47
2017-07-22T00:49:52.172Z,4.78
2017-07-22T00:52:19.682Z,5.43
2017-07-22T00:54:47.131Z,4.20
2017-07-22T00:57:14.597Z,3.80
2017-07-22T00:59:42.049Z,4.60
2017-07-22T01:02:09.499Z,4.32
2017-07-22T01:04:36.942Z,4.55
2017-07-22T01:07:04.372Z,4.93
2017-07-22T01:09:31.878Z,4.70
2017-07-22T01:11:59.338Z,4.10
2017-07-22T01:14:26.794Z,3.50
2017-07-22T01:16:54.351Z,3.70
2017-07-22T01:19:21.809Z,5.72
2017-07-22T01:21:49.266Z,3.50
2017-07-22T01:24:16.695Z,3.60
2017-07-22T01:26:44.143Z,4.62
2017-07-22T01:29:11.572Z,5.22
2017-07-22T01:31:39.051Z,4.22
2017-07-22T01:34:06.536Z,4.62
2017-07-22T01:36:34.019Z,3.92
2017-07-22T01:39:02.244Z,4.60
2017-07-22T01:41:29.694Z,5.40
2017-07-22T01:43:57.131Z,5.65
2017-07-22T01:46:24.626Z,4.43
2017-07-22T01:48:52.054Z,5.07
2017-07-22T01:51:19.514Z,4.32
2017-07-22T01:53:47.003Z,4.47
2017-07-22T01:56:14.467Z,3.30
2017-07-22T01:58:41.916Z,4.87
2017-07-22T02:01:09.386Z,3.90
2017-07-22T02:03:36.851Z,3.72
2017-07-22T02:06:04.359Z,5.40
2017-07-22T02:08:31.844Z,4.05
2017-07-22T02:10:59.291Z,6.50
2017-07-22T02:13:26.723Z,3.87
2017-07-22T02:15:54.225Z,5.80
2017-07-22T02:18:21.685Z,4.45
2017-07-22T02:20:49.115Z,3.53
2017-07-22T02:23:16.563Z,5.30
2017-07-22T02:25:44.035Z,5.72
2017-07-22T02:28:11.481Z,3.42
2017-07-22T02:30:38.938Z,3.75
2017-07-22T02:33:06.531Z,4.20
2017-07-22T02:35:33.976Z,4.95
2017-07-22T02:38:01.425Z,4.03
2017-07-22T02:40:28.866Z,4.73
2017-07-22T02:42:56.309Z,4.05
2017-07-22T02:45:23.808Z,5.97
2017-07-22T02:47:51.257Z,5.20
2017-07-22T02:50:18.697Z,4.18
2017-07-22T02:52:46.155Z,5.18
2017-07-22T02:55:13.603Z,3.70
2017-07-22T02:57:41.043Z,4.70
2017-07-22T03:00:08.480Z,4.80
2017-07-22T03:02:35.976Z,4.43
2017-07-22T03:05:03.454Z,4.22
2017-07-22T03:07:30.890Z,5.25
2017-07-22T03:09:58.351Z,3.53
2017-07-22T03:12:25.784Z,6.03
2017-07-22T03:14:53.230Z,3.53
2017-07-22T03:17:20.664Z,4.68
2017-07-22T03:19:48.883Z,4.28
2017-07-22T03:22:16.374Z,5.28
2017-07-22T03:24:43.813Z,4.57
2017-07-22T03:27:11.254Z,3.70
2017-07-22T03:29:38.843Z,4.53
2017-07-22T03:32:06.307Z,6.62
2017-07-22T03:34:34.581Z,4.12
2017-07-22T03:37:02.130Z,4.53
2017-07-22T03:39:29.573Z,4.78
2017-07-22T03:41:57.045Z,3.83
2017-07-22T03:44:24.474Z,4.43
2017-07-22T03:46:51.925Z,6.53
2017-07-22T03:49:19.413Z,4.50
2017-07-22T03:51:46.861Z,7.05
2017-07-22T03:54:14.387Z,4.78
2017-07-22T03:56:41.885Z,4.20
2017-07-22T03:59:09.322Z,6.33
2017-07-22T04:01:36.775Z,4.37
2017-07-22T04:04:04.232Z,4.47
2017-07-22T04:06:31.677Z,6.80
2017-07-22T04:08:59.121Z,3.92
2017-07-22T04:11:26.594Z,4.20
2017-07-22T04:13:54.166Z,3.53
2017-07-22T04:16:21.724Z,3.95
2017-07-22T04:18:49.197Z,6.07
2017-07-22T04:21:16.623Z,4.33
2017-07-22T04:23:44.065Z,3.30
2017-07-22T04:26:11.575Z,5.35
2017-07-22T04:28:39.110Z,3.72
2017-07-22T04:31:06.637Z,4.45
2017-07-22T04:33:34.075Z,4.75
2017-07-22T04:36:01.522Z,4.65
2017-07-22T04:38:29.769Z,6.60
2017-07-22T04:40:57.199Z,4.62
2017-07-22T04:43:24.664Z,4.85
2017-07-22T04:45:52.143Z,5.55
2017-07-22T04:48:20.347Z,4.30
2017-07-22T04:50:47.848Z,4.60
2017-07-22T04:53:15.283Z,6.65
2017-07-22T04:55:42.738Z,3.55
2017-07-22T04:58:10.232Z,4.53
2017-07-22T05:00:38.482Z,4.32
2017-07-22T05:03:05.950Z,4.28
2017-07-22T05:05:33.387Z,4.43
2017-07-22T05:08:00.854Z,4.32
2017-07-22T05:10:28.291Z,4.60
2017-07-22T05:12:55.878Z,4.30
2017-07-22T05:15:23.412Z,4.95
2017-07-22T05:17:50.854Z,4.40
2017-07-22T05:20:18.382Z,7.25
2017-07-22T05:22:45.886Z,7.45
2017-07-22T05:25:13.338Z,3.33
2017-07-22T05:27:40.794Z,5.40
2017-07-22T05:30:08.258Z,3.83
2017-07-22T05:32:35.716Z,4.43
2017-07-22T05:35:03.156Z,3.50
2017-07-22T05:37:30.630Z,5.78
2017-07-22T05:39:58.080Z,5.22
2017-07-22T05:42:25.765Z,3.80
2017-07-22T05:44:53.197Z,5.68
2017-07-22T05:47:20.715Z,5.15
2017-07-22T05:49:48.157Z,3.50
2017-07-22T05:52:15.813Z,3.83
2017-07-22T05:54:43.296Z,3.72
2017-07-22T05:57:10.747Z,4.87
2017-07-22T05:59:38.193Z,4.22
2017-07-22T06:02:05.645Z,3.47
2017-07-22T06:04:33.107Z,3.90
2017-07-22T06:07:00.570Z,4.28
2017-07-22T06:09:28.001Z,3.90
2017-07-22T06:11:55.436Z,5.43
2017-07-22T06:14:22.927Z,5.80
2017-07-22T06:16:50.465Z,7.20
2017-07-22T06:19:17.946Z,5.32
2017-07-22T06:21:46.200Z,4.67
2017-07-22T06:24:13.629Z,6.90
2017-07-22T06:26:41.072Z,4.80
2017-07-22T06:29:08.539Z,5.05
2017-07-22T06:31:35.994Z,4.47
2017-07-22T06:34:03.484Z,5.50
2017-07-22T06:36:30.907Z,3.97
2017-07-22T06:38:58.391Z,4.78
2017-07-22T06:41:25.932Z,6.20
2017-07-22T06:43:53.387Z,5.37
2017-07-22T06:46:20.827Z,4.55
2017-07-22T06:48:48.301Z,4.97
2017-07-22T06:51:15.829Z,4.50
2017-07-22T06:53:43.414Z,4.90
2017-07-22T06:56:10.849Z,6.15
2017-07-22T06:58:38.390Z,4.90
2017-07-22T07:01:05.850Z,6.25
2017-07-22T07:03:33.315Z,5.68
2017-07-22T07:06:00.747Z,5.30
2017-07-22T07:08:28.207Z,5.47
2017-07-22T07:10:55.649Z,4.90
2017-07-22T07:13:23.146Z,5.65
2017-07-22T07:15:50.695Z,5.80
2017-07-22T07:18:18.247Z,5.80
2017-07-22T07:20:45.700Z,5.53
2017-07-22T07:23:13.237Z,5.87
2017-07-22T07:25:40.669Z,6.20
2017-07-22T07:28:08.106Z,6.20
2017-07-22T07:30:36.350Z,6.60
2017-07-22T07:33:03.797Z,6.40
2017-07-22T07:35:31.278Z,6.93
2017-07-22T07:37:58.736Z,7.10
2017-07-22T07:40:26.351Z,6.03
2017-07-22T07:42:53.833Z,6.40
2017-07-22T07:45:21.262Z,6.67
2017-07-22T07:47:48.694Z,7.60
2017-07-22T07:50:16.278Z,7.65
2017-07-22T07:52:43.880Z,7.57
2017-07-22T07:55:11.379Z,7.10
2017-07-22T07:57:38.838Z,7.80
2017-07-22T08:00:06.271Z,7.40
2017-07-22T08:02:34.487Z,7.60
2017-07-22T08:05:02.040Z,8.30
2017-07-22T08:07:29.537Z,7.70
2017-07-22T08:09:56.959Z,8.60
2017-07-22T08:12:24.453Z,7.70
2017-07-22T08:14:51.969Z,8.88
2017-07-22T08:17:19.403Z,8.15
2017-07-22T08:19:46.923Z,8.60
2017-07-22T08:22:14.507Z,8.40
2017-07-22T08:24:42.018Z,7.53
2017-07-22T08:27:09.470Z,8.02
2017-07-22T08:29:36.909Z,8.53
2017-07-22T08:32:04.399Z,8.43
2017-07-22T08:34:31.838Z,7.90
2017-07-22T08:36:59.322Z,8.60
2017-07-22T08:39:27.545Z,8.82
2017-07-22T08:41:55.052Z,9.90
2017-07-22T08:44:22.590Z,8.32
2017-07-22T08:46:50.079Z,8.45
2017-07-22T08:49:18.299Z,8.98
2017-07-22T08:51:45.731Z,9.27
2017-07-22T08:54:13.169Z,8.93
2017-07-22T08:56:41.430Z,8.30
2017-07-22T08:59:08.980Z,8.98
2017-07-22T09:01:36.411Z,9.77
2017-07-22T09:04:03.878Z,10.05
2017-07-22T09:06:31.363Z,9.52
2017-07-22T09:08:58.914Z,10.95
2017-07-22T09:11:26.473Z,10.98
2017-07-22T09:13:54.029Z,9.67
2017-07-22T09:16:21.503Z,12.27
2017-07-22T09:18:49.035Z,10.35
2017-07-22T09:21:16.591Z,11.23
2017-07-22T09:23:44.068Z,11.80
2017-07-22T09:26:11.535Z,12.17
2017-07-22T09:28:39.839Z,11.10
2017-07-22T09:31:07.339Z,11.25
2017-07-22T09:33:35.224Z,10.70
2017-07-22T09:36:03.245Z,11.12
2017-07-22T09:38:32.048Z,11.50
2017-07-22T09:40:59.965Z,12.70
2017-07-22T09:43:27.973Z,12.02
2017-07-22T09:45:55.938Z,12.98
2017-07-22T09:48:24.112Z,12.77
2017-07-22T09:50:51.958Z,13.95
2017-07-22T09:53:20.764Z,13.55
2017-07-22T09:55:48.738Z,13.73
2017-07-22T09:58:16.392Z,12.57
2017-07-22T10:00:43.820Z,13.00
2017-07-22T10:03:12.027Z,14.93
2017-07-22T10:05:39.477Z,14.43
2017-07-22T10:08:07.054Z,15.65
2017-07-22T10:10:34.525Z,15.38
2017-07-22T10:13:01.981Z,17.85
2017-07-22T10:15:29.445Z,17.35
2017-07-22T10:17:56.991Z,15.55
2017-07-22T10:20:24.442Z,16.40
2017-07-22T10:22:51.883Z,16.97
2017-07-22T10:25:19.369Z,19.10
2017-07-22T10:27:46.824Z,17.67
2017-07-22T10:30:14.276Z,19.70
2017-07-22T10:32:41.736Z,19.40
2017-07-22T10:35:09.294Z,18.45
2017-07-22T10:37:36.829Z,18.12
2017-07-22T10:40:04.308Z,18.70
2017-07-22T10:42:31.762Z,18.30
2017-07-22T10:44:59.195Z,18.52
2017-07-22T10:47:26.649Z,20.20
2017-07-22T10:49:54.210Z,18.10
2017-07-22T10:52:21.696Z,17.37
2017-07-22T10:54:49.243Z,18.03
2017-07-22T10:57:16.694Z,18.87
2017-07-22T10:59:44.169Z,18.30
2017-07-22T11:02:11.626Z,21.00
2017-07-22T11:04:39.176Z,18.70
2017-07-22T11:07:06.620Z,21.25
2017-07-22T11:09:34.055Z,20.98
2017-07-22T11:12:01.573Z,20.20
2017-07-22T11:14:29.912Z,19.50
2017-07-22T11:16:57.388Z,19.62
2017-07-22T11:19:24.956Z,19.08
2017-07-22T11:21:52.411Z,19.10
2017-07-22T11:24:19.858Z,18.62
2017-07-22T11:26:47.342Z,18.70
2017-07-22T11:29:15.562Z,18.90
2017-07-22T11:31:43.020Z,19.33
2017-07-22T11:34:10.463Z,18.85
2017-07-22T11:36:37.947Z,19.40
2017-07-22T11:39:05.529Z,22.35
2017-07-22T11:41:32.968Z,18.87
2017-07-22T11:44:00.407Z,19.40
2017-07-22T11:46:27.949Z,16.48
2017-07-22T11:48:55.509Z,17.47
2017-07-22T11:51:22.987Z,17.83
2017-07-22T11:53:50.466Z,18.80
2017-07-22T11:56:17.909Z,22.13
2017-07-22T11:58:45.389Z,19.30
2017-07-22T12:01:13.591Z,19.57
2017-07-22T12:03:41.140Z,18.73
2017-07-22T12:06:08.652Z,18.60
2017-07-22T12:08:36.241Z,18.95
2017-07-22T12:11:04.488Z,19.40
2017-07-22T12:13:31.927Z,19.92
2017-07-22T12:15:59.359Z,19.27
2017-07-22T12:18:26.858Z,16.85
2017-07-22T12:20:54.328Z,16.80
2017-07-22T12:23:21.799Z,15.57
2017-07-22T12:25:50.027Z,16.87
2017-07-22T12:28:17.574Z,15.80
2017-07-22T12:30:45.047Z,16.50
2017-07-22T12:33:12.589Z,16.98
2017-07-22T12:35:40.070Z,16.67
2017-07-22T12:38:07.605Z,15.38
2017-07-22T12:40:35.031Z,15.80
2017-07-22T12:43:02.488Z,15.17
2017-07-22T12:45:30.729Z,15.05
2017-07-22T12:47:58.251Z,15.60
2017-07-22T12:50:25.720Z,19.67
2017-07-22T12:52:53.262Z,16.73
2017-07-22T12:55:20.716Z,14.55
2017-07-22T12:57:48.221Z,16.50
2017-07-22T13:00:15.677Z,15.20
2017-07-22T13:02:43.179Z,14.55
2017-07-22T13:05:10.632Z,14.52
2017-07-22T13:07:38.081Z,16.02
2017-07-22T13:10:05.541Z,13.30
2017-07-22T13:12:33.036Z,14.10
2017-07-22T13:15:00.499Z,12.52
2017-07-22T13:17:27.978Z,12.57
2017-07-22T13:19:55.587Z,13.23
2017-07-22T13:22:23.029Z,11.73
2017-07-22T13:24:50.587Z,12.75
2017-07-22T13:27:18.102Z,11.80
2017-07-22T13:29:45.533Z,13.02
2017-07-22T13:32:12.985Z,12.52
2017-07-22T13:34:40.461Z,11.85
2017-07-22T13:37:08.021Z,11.80
2017-07-22T13:39:35.646Z,11.20
2017-07-22T13:42:03.208Z,10.98
2017-07-22T13:44:30.643Z,11.50
2017-07-22T13:46:58.084Z,10.90
2017-07-22T13:49:25.595Z,11.40
2017-07-22T13:51:53.061Z,12.05
2017-07-22T13:54:20.587Z,14.13
2017-07-22T13:56:48.045Z,12.47
2017-07-22T13:59:15.623Z,13.65
2017-07-22T14:01:43.102Z,14.40
2017-07-22T14:04:10.606Z,14.35
2017-07-22T14:06:38.059Z,14.27
2017-07-22T14:09:05.501Z,14.80
2017-07-22T14:11:32.957Z,14.43
2017-07-22T14:14:01.189Z,14.73
2017-07-22T14:16:28.651Z,13.93
2017-07-22T14:18:56.106Z,14.00
2017-07-22T14:21:23.572Z,14.95
2017-07-22T14:23:50.999Z,14.68
2017-07-22T14:26:18.451Z,13.80
2017-07-22T14:28:45.920Z,15.93
2017-07-22T14:31:13.382Z,15.10
2017-07-22T14:33:40.835Z,13.97
2017-07-22T14:36:08.292Z,14.02
2017-07-22T14:38:35.749Z,14.50
2017-07-22T14:41:03.281Z,13.00
2017-07-22T14:43:30.776Z,13.07
2017-07-22T14:45:58.328Z,14.70
2017-07-22T14:48:25.770Z,13.98
2017-07-22T14:50:53.217Z,15.27
2017-07-22T14:53:20.679Z,16.08
2017-07-22T14:55:48.147Z,16.55
2017-07-22T14:58:15.610Z,14.93
2017-07-22T15:00:43.061Z,15.00
2017-07-22T15:03:10.534Z,16.45
2017-07-22T15:05:37.999Z,14.70
2017-07-22T15:08:05.459Z,14.73
2017-07-22T15:10:33.821Z,15.77
2017-07-22T15:13:01.322Z,15.55
2017-07-22T15:15:28.763Z,15.65
2017-07-22T15:17:57.009Z,15.77
2017-07-22T15:20:24.669Z,16.30
2017-07-22T15:22:52.236Z,14.68
2017-07-22T15:25:19.707Z,15.50
2017-07-22T15:27:47.235Z,16.10
2017-07-22T15:30:14.691Z,16.30
2017-07-22T15:32:43.036Z,14.95
2017-07-22T15:35:10.496Z,15.35
2017-07-22T15:37:37.933Z,16.02
2017-07-22T15:40:05.416Z,15.53
2017-07-22T15:42:32.933Z,14.45
2017-07-22T15:45:00.487Z,15.43
2017-07-22T15:47:28.073Z,14.77
2017-07-22T15:49:55.514Z,14.32
2017-07-22T15:52:22.968Z,14.50
2017-07-22T15:54:50.478Z,14.68
2017-07-22T15:57:17.932Z,14.65
2017-07-22T15:59:46.258Z,13.85
2017-07-22T16:02:13.734Z,14.75
2017-07-22T16:04:41.187Z,14.55
2017-07-22T16:07:09.053Z,15.40
2017-07-22T16:09:36.499Z,15.23
2017-07-22T16:12:03.958Z,14.10
2017-07-22T16:14:31.397Z,14.93
2017-07-22T16:16:58.887Z,13.83
2017-07-22T16:19:26.437Z,13.93
2017-07-22T16:21:53.927Z,13.20
2017-07-22T16:24:22.244Z,13.82
2017-07-22T16:26:49.803Z,13.23
2017-07-22T16:29:17.299Z,12.93
2017-07-22T16:31:44.817Z,13.57
2017-07-22T16:34:12.290Z,14.00
2017-07-22T16:36:39.752Z,14.48
2017-07-22T16:39:07.291Z,14.30
2017-07-22T16:41:34.710Z,13.10
2017-07-22T16:44:02.933Z,14.45
2017-07-22T16:46:30.403Z,13.80
2017-07-22T16:48:57.852Z,13.50
2017-07-22T16:51:25.313Z,14.10
2017-07-22T16:53:52.768Z,13.05
2017-07-22T16:56:20.222Z,13.73
2017-07-22T16:58:47.690Z,14.10
2017-07-22T17:01:15.126Z,12.63
2017-07-22T17:03:42.587Z,12.60
2017-07-22T17:06:10.067Z,13.95
2017-07-22T17:08:37.606Z,13.30
2017-07-22T17:11:05.087Z,12.73
2017-07-22T17:13:33.310Z,12.50
2017-07-22T17:16:00.796Z,11.90
2017-07-22T17:18:28.257Z,12.95
2017-07-22T17:20:55.710Z,12.93
2017-07-22T17:23:23.344Z,12.43
2017-07-22T17:25:50.887Z,12.32
2017-07-22T17:28:18.417Z,12.73
2017-07-22T17:30:46.632Z,12.53
2017-07-22T17:33:14.148Z,12.65
2017-07-22T17:35:41.603Z,13.47
2017-07-22T17:38:09.840Z,12.90
2017-07-22T17:40:37.277Z,13.65
2017-07-22T17:43:04.784Z,14.85
2017-07-22T17:45:32.255Z,12.23
2017-07-22T17:47:59.766Z,11.80
2017-07-22T17:50:27.237Z,12.32
2017-07-22T17:52:54.781Z,11.35
2017-07-22T17:55:22.251Z,11.77
2017-07-22T17:57:49.690Z,11.80
2017-07-22T18:00:17.137Z,11.88
2017-07-22T18:02:44.592Z,11.67
2017-07-22T18:05:12.134Z,12.20
2017-07-22T18:07:39.669Z,12.35
2017-07-22T18:10:07.103Z,12.90
2017-07-22T18:12:34.648Z,12.50
2017-07-22T18:15:02.114Z,12.30
2017-07-22T18:17:29.582Z,12.93
2017-07-22T18:19:57.027Z,12.43
2017-07-22T18:22:24.487Z,13.25
2017-07-22T18:24:52.044Z,12.95
2017-07-22T18:27:19.481Z,13.90
2017-07-22T18:29:46.953Z,12.98
2017-07-22T18:32:14.459Z,12.48
2017-07-22T18:34:41.950Z,11.60
2017-07-22T18:37:09.414Z,12.65
2017-07-22T18:39:36.866Z,12.10
2017-07-22T18:42:04.332Z,11.50
2017-07-22T18:44:31.941Z,12.00
2017-07-22T18:46:59.384Z,10.48
2017-07-22T18:49:26.899Z,10.00
2017-07-22T18:51:54.453Z,9.27
2017-07-22T18:54:21.917Z,8.60
2017-07-22T18:56:49.404Z,9.82
2017-07-22T18:59:17.669Z,8.93
2017-07-22T19:01:45.205Z,8.63
2017-07-22T19:04:12.673Z,8.50
2017-07-22T19:06:40.119Z,8.38
2017-07-22T19:09:07.569Z,8.98
2017-07-22T19:11:35.043Z,8.15
2017-07-22T19:14:02.485Z,9.60
2017-07-22T19:16:29.946Z,9.32
2017-07-22T19:18:57.403Z,9.20
2017-07-22T19:21:24.906Z,9.13
2017-07-22T19:23:52.492Z,9.43
2017-07-22T19:26:19.912Z,9.48
2017-07-22T19:28:48.158Z,8.65
2017-07-22T19:31:15.619Z,8.75
2017-07-22T19:33:43.085Z,13.35
2017-07-22T19:36:11.310Z,8.80
2017-07-22T19:38:38.756Z,8.48
2017-07-22T19:41:06.242Z,8.60
2017-07-22T19:43:33.718Z,9.38
2017-07-22T19:46:01.205Z,7.90
2017-07-22T19:48:29.433Z,7.53
2017-07-22T19:50:56.890Z,9.17
2017-07-22T19:53:24.327Z,8.27
2017-07-22T19:55:51.764Z,7.78
2017-07-22T19:58:19.247Z,7.93
2017-07-22T20:00:46.728Z,8.48
2017-07-22T20:03:14.276Z,7.63
2017-07-22T20:05:41.804Z,8.35
2017-07-22T20:08:09.293Z,10.10
2017-07-22T20:10:36.750Z,10.10
2017-07-22T20:13:04.193Z,9.63
2017-07-22T20:15:31.654Z,11.93
2017-07-22T20:17:59.120Z,8.80
2017-07-22T20:20:26.581Z,10.60
2017-07-22T20:22:54.825Z,9.87
2017-07-22T20:25:22.271Z,10.30
2017-07-22T20:27:49.751Z,10.00
2017-07-22T20:30:17.215Z,10.98
2017-07-22T20:32:44.779Z,10.02
2017-07-22T20:35:12.219Z,11.25
2017-07-22T20:37:39.684Z,10.82
2017-07-22T20:40:07.150Z,10.98
2017-07-22T20:42:34.601Z,11.10
2017-07-22T20:45:02.120Z,11.23
2017-07-22T20:47:29.606Z,10.32
2017-07-22T20:49:57.179Z,11.88
2017-07-22T20:52:24.619Z,12.30
2017-07-22T20:54:52.064Z,12.48
2017-07-22T20:57:19.543Z,11.55
2017-07-22T20:59:46.987Z,13.73
2017-07-22T21:02:14.427Z,11.70
2017-07-22T21:04:41.895Z,13.85
2017-07-22T21:07:09.355Z,12.35
2017-07-22T21:09:36.816Z,13.25
2017-07-22T21:12:04.282Z,11.57
2017-07-22T21:14:31.744Z,13.20
2017-07-22T21:16:59.205Z,13.30
2017-07-22T21:19:26.665Z,13.27
2017-07-22T21:21:54.150Z,12.73
2017-07-22T21:24:22.383Z,12.80
2017-07-22T21:26:49.841Z,12.73
2017-07-22T21:29:17.302Z,13.98
2017-07-22T21:31:44.823Z,13.40
2017-07-22T21:34:12.315Z,13.00
2017-07-22T21:36:39.761Z,13.20
2017-07-22T21:39:07.217Z,14.77
2017-07-22T21:41:34.749Z,14.50
2017-07-22T21:44:02.193Z,16.90
2017-07-22T21:46:29.705Z,16.27
2017-07-22T21:48:57.148Z,17.00
2017-07-22T21:51:24.614Z,17.00
2017-07-22T21:53:52.057Z,17.17
2017-07-22T21:56:19.512Z,18.20
2017-07-22T21:58:46.965Z,19.62
2017-07-22T22:01:14.428Z,19.50
2017-07-22T22:03:41.877Z,20.58
2017-07-22T22:06:09.326Z,19.80
2017-07-22T22:08:36.764Z,20.60
2017-07-22T22:11:04.226Z,18.90
2017-07-22T22:13:31.784Z,19.65
2017-07-22T22:15:59.239Z,19.53
2017-07-22T22:18:26.719Z,19.02
2017-07-22T22:20:54.957Z,19.62
2017-07-22T22:23:22.397Z,19.62
2017-07-22T22:25:49.872Z,20.90
2017-07-22T22:28:17.299Z,20.85
2017-07-22T22:30:45.517Z,21.65
2017-07-22T22:33:12.968Z,22.15
2017-07-22T22:35:40.427Z,22.77
2017-07-22T22:38:07.933Z,22.10
2017-07-22T22:40:35.364Z,22.95
2017-07-22T22:43:02.820Z,21.77
2017-07-22T22:45:30.285Z,23.08
2017-07-22T22:47:57.841Z,23.27
2017-07-22T22:50:25.299Z,23.12
2017-07-22T22:52:52.751Z,24.13
2017-07-22T22:55:20.204Z,23.67
2017-07-22T22:57:47.765Z,23.60
2017-07-22T23:00:15.216Z,23.58
2017-07-22T23:02:42.711Z,23.02
2017-07-22T23:05:10.143Z,24.52
2017-07-22T23:07:37.581Z,24.20
2017-07-22T23:10:05.158Z,24.73
2017-07-22T23:12:32.592Z,25.20
2017-07-22T23:15:00.060Z,24.55
2017-07-22T23:17:27.495Z,26.87
2017-07-22T23:19:54.943Z,28.10
2017-07-22T23:22:22.399Z,27.42
2017-07-22T23:24:49.891Z,28.05
2017-07-22T23:27:17.339Z,28.58
2017-07-22T23:29:44.781Z,27.33
2017-07-22T23:32:12.256Z,28.27
2017-07-22T23:34:39.717Z,29.80
2017-07-22T23:37:07.175Z,29.85
2017-07-22T23:39:34.637Z,29.92
2017-07-22T23:42:02.191Z,31.07
2017-07-22T23:44:29.711Z,30.10
2017-07-22T23:46:57.181Z,30.25
2017-07-22T23:49:24.903Z,30.45
2017-07-22T23:51:52.490Z,31.00
2017-07-22T23:54:19.919Z,30.50
2017-07-22T23:56:47.416Z,30.73
2017-07-22T23:59:15.671Z,32.07
